Time;durP1;ratioP1;P1;durP2;ratioP2;P2;SDS_P1;SDS_P2;PMS_P1;PMS_P2;Temp;Humidity;BMP_temperature;BMP_pressure;BME280_temperature;BME280_humidity;BME280_pressure;Samples;Min_cycle;Max_cycle;Signal;HPM_P1;HPM_P2
2023/12/07 00:01:24;;;;;;;72.90;31.10;;;;;;;-144.05;81.33;57040.00;5032798;28;20061;-84
2023/12/07 00:03:50;;;;;;;80.10;33.78;;;;;;;-144.05;81.37;57071.84;5027852;28;20033;-83
2023/12/07 00:06:16;;;;;;;76.53;33.63;;;;;;;-144.05;81.66;57052.75;5052730;28;20083;-84
2023/12/07 00:08:42;;;;;;;77.03;34.47;;;;;;;-144.05;81.52;57076.09;5035860;28;20550;-82
2023/12/07 00:11:09;;;;;;;75.85;32.78;;;;;;;-144.05;81.47;57067.59;5052503;28;20505;-82
2023/12/07 00:13:35;;;;;;;78.45;32.28;;;;;;;-144.05;81.39;57099.47;5035752;28;20036;-83
2023/12/07 00:16:02;;;;;;;84.25;34.85;;;;;;;-144.05;81.16;57071.84;5053778;28;20394;-83
2023/12/07 00:18:28;;;;;;;80.65;33.58;;;;;;;-144.05;81.40;57059.09;5032303;28;20030;-83
2023/12/07 00:20:54;;;;;;;73.68;31.20;;;;;;;-144.05;81.30;57035.75;5019668;28;20115;-84
2023/12/07 00:23:20;;;;;;;77.38;31.60;;;;;;;-144.05;81.36;57076.09;5053391;28;20032;-83
2023/12/07 00:25:47;;;;;;;75.93;31.92;;;;;;;-144.05;80.95;57061.22;5035532;28;20029;-84
2023/12/07 00:28:13;;;;;;;69.25;29.83;;;;;;;-144.05;80.82;57061.22;5035364;28;20390;-81
2023/12/07 00:30:39;;;;;;;74.95;30.45;;;;;;;-144.05;80.75;57069.72;5053387;28;20064;-83
2023/12/07 00:33:05;;;;;;;75.55;29.58;;;;;;;-144.05;81.13;57073.97;5053481;28;20447;-83
2023/12/07 00:35:31;;;;;;;69.50;32.45;;;;;;;-144.05;81.19;57065.47;5047478;28;20024;-84
2023/12/07 00:37:58;;;;;;;65.90;30.70;;;;;;;-144.05;81.74;57090.97;5045864;28;20021;-86
2023/12/07 00:40:24;;;;;;;73.78;31.83;;;;;;;-144.05;81.64;57065.47;5029819;28;20037;-87
2023/12/07 00:42:50;;;;;;;79.65;32.15;;;;;;;-144.05;81.81;57071.84;5041123;28;20057;-86
2023/12/07 00:45:17;;;;;;;65.78;30.98;;;;;;;-144.05;81.37;57071.84;5036431;28;20028;-84
2023/12/07 00:47:43;;;;;;;83.95;33.75;;;;;;;-144.05;82.04;57086.72;5052816;28;20044;-85
2023/12/07 00:50:14;;;;;;;79.78;32.15;;;;;;;-144.05;82.43;57095.22;5053653;28;20033;-82
2023/12/07 00:52:40;;;;;;;73.50;31.23;;;;;;;-144.05;82.17;57082.47;5054013;28;20021;-82
2023/12/07 00:55:07;;;;;;;76.80;30.63;;;;;;;-144.05;81.82;57073.97;5050091;28;20029;-83
2023/12/07 00:57:33;;;;;;;82.15;32.03;;;;;;;-144.05;82.17;57080.34;5053449;28;20112;-84
2023/12/07 00:59:59;;;;;;;79.25;31.50;;;;;;;-144.05;82.57;57097.34;5042212;28;20371;-83
2023/12/07 01:02:25;;;;;;;84.03;32.20;;;;;;;-144.05;82.04;57069.72;5035173;28;20658;-84
2023/12/07 01:04:51;;;;;;;75.63;31.13;;;;;;;-144.05;82.22;57082.47;5052925;28;20029;-82
2023/12/07 01:07:18;;;;;;;74.35;30.90;;;;;;;-144.05;82.11;57084.59;5035174;28;20399;-83
2023/12/07 01:09:44;;;;;;;78.57;32.45;;;;;;;-144.05;81.93;57076.09;5035195;28;20427;-83
2023/12/07 01:12:10;;;;;;;84.28;34.38;;;;;;;-144.05;82.65;57046.38;5052557;28;20025;-83
2023/12/07 01:14:38;;;;;;;77.43;32.20;;;;;;;-144.05;81.88;57033.63;5035074;28;20506;-83
2023/12/07 01:17:04;;;;;;;80.18;33.03;;;;;;;-144.05;82.38;57063.34;5042574;28;20055;-80
2023/12/07 01:19:30;;;;;;;79.68;32.72;;;;;;;-144.05;82.37;57078.22;5060460;28;20028;-81
2023/12/07 01:21:57;;;;;;;77.28;32.30;;;;;;;-144.05;81.99;57082.47;5035828;28;20033;-82
2023/12/07 01:24:23;;;;;;;88.43;33.45;;;;;;;-144.05;82.37;57059.09;5039188;28;20028;-83
2023/12/07 01:26:49;;;;;;;81.95;33.03;;;;;;;-144.05;82.24;57097.34;5034383;28;20079;-86
2023/12/07 01:29:15;;;;;;;77.47;32.88;;;;;;;-144.05;81.88;57052.75;5052450;28;20064;-83
2023/12/07 01:31:42;;;;;;;83.88;35.22;;;;;;;-144.05;82.06;57078.22;5034394;28;20040;-83
2023/12/07 01:34:09;;;;;;;87.70;32.83;;;;;;;-144.05;81.71;57073.97;5050984;28;20037;-85
2023/12/07 01:36:35;;;;;;;86.72;33.22;;;;;;;-144.05;82.04;57071.84;5050944;28;20024;-82
2023/12/07 01:39:01;;;;;;;78.72;32.88;;;;;;;-144.05;82.86;57073.97;5034491;28;20432;-83
2023/12/07 01:41:28;;;;;;;79.32;33.83;;;;;;;-144.05;82.99;57044.25;5052052;28;20131;-83
2023/12/07 01:43:54;;;;;;;81.70;33.90;;;;;;;-144.05;82.55;57040.00;5052219;28;20033;-84
2023/12/07 01:46:20;;;;;;;76.45;32.05;;;;;;;-144.05;82.76;57076.09;5038299;28;20021;-84
2023/12/07 01:48:49;;;;;;;77.70;31.70;;;;;;;-144.05;82.65;57073.97;5030613;28;20030;-82
2023/12/07 01:51:18;;;;;;;85.15;33.15;;;;;;;-144.05;82.35;57093.09;5014422;28;20029;-83
2023/12/07 01:53:45;;;;;;;79.68;34.15;;;;;;;-144.05;82.26;57056.97;5032574;28;20044;-84
2023/12/07 01:56:12;;;;;;;81.10;33.33;;;;;;;-144.05;82.07;57065.47;5033965;28;20028;-83
2023/12/07 01:58:38;;;;;;;78.90;32.22;;;;;;;-144.05;81.84;57042.13;5053073;28;20017;-87
2023/12/07 02:01:05;;;;;;;78.68;33.28;;;;;;;-144.05;81.56;57065.47;5041591;28;20033;-85
2023/12/07 02:03:32;;;;;;;77.55;32.40;;;;;;;-144.05;81.84;57076.09;5053346;28;20032;-87
2023/12/07 02:06:01;;;;;;;88.35;32.92;;;3.40;99.90;;;-144.05;81.91;57061.22;5037320;28;20468;-85
2023/12/07 02:08:27;;;;;;;76.90;30.77;;;;;;;-144.05;82.10;57061.22;5051853;28;20035;-82
2023/12/07 02:10:54;;;;;;;80.30;31.08;;;;;;;-144.05;82.06;57078.22;5033771;28;20091;-82
2023/12/07 02:13:21;;;;;;;79.65;32.13;;;3.50;99.90;;;-144.05;82.07;57042.13;5030164;28;20434;-85
2023/12/07 02:15:50;;;;;;;72.28;30.30;;;;;;;-144.05;81.66;57069.72;5017213;28;20488;-83
2023/12/07 02:18:33;;;;;;;72.82;30.98;;;;;;;-144.05;82.16;57067.59;5033625;28;20024;-82
2023/12/07 02:21:26;;;;;;;77.85;31.63;;;;;;;-144.05;81.59;57082.47;5033624;28;20025;-81
2023/12/07 02:23:54;;;;;;;78.65;32.60;;;;;;;-144.05;81.36;57063.34;5014218;28;20033;-83
2023/12/07 02:26:30;;;;;;;72.45;29.38;;;;;;;-144.05;81.16;57061.22;5047167;28;20064;-83
2023/12/07 02:28:57;;;;;;;72.85;28.73;;;;;;;-144.05;81.80;57078.22;5033247;28;20036;-83
2023/12/07 02:31:23;;;;;;;78.38;29.20;;;;;;;-144.05;82.86;57095.22;5030315;28;20029;-84
2023/12/07 02:33:50;;;;;;;72.50;31.42;;;;;;;-144.05;82.32;57086.72;5050916;28;20107;-84
2023/12/07 02:36:21;;;;;;;73.13;29.25;;;;;;;-144.05;81.96;57095.22;5050006;28;20075;-83
2023/12/07 02:38:51;;;;;;;69.70;27.05;;;;;;;-144.05;82.79;57069.72;5051016;28;20534;-81
2023/12/07 02:41:20;;;;;;;65.53;28.35;;;;;;;-144.05;82.08;57016.63;5045900;28;20107;-83
2023/12/07 02:43:46;;;;;;;76.50;29.30;;;;;;;-144.05;82.71;57061.22;5033496;28;20029;-83
2023/12/07 02:46:13;;;;;;;65.35;28.02;;;;;;;-144.05;81.97;57059.09;5030409;28;20167;-83
2023/12/07 02:48:39;;;;;;;68.55;28.75;;;;;;;-144.05;81.84;57090.97;5029920;28;20094;-84
2023/12/07 02:51:06;;;;;;;64.38;27.00;;;;;;;-144.05;81.57;57097.34;5045060;28;20033;-82
2023/12/07 02:53:33;;;;;;;65.88;27.85;;;;;;;-144.05;82.06;57040.00;5049792;28;20124;-85
2023/12/07 02:55:59;;;;;;;66.43;27.35;;;;;;;-144.05;82.24;57063.34;5051353;28;20029;-83
2023/12/07 02:58:25;;;;;;;75.22;27.88;;;;;;;-144.05;82.41;57078.22;5044888;28;20509;-82
2023/12/07 03:00:51;;;;;;;70.45;27.80;;;;;;;-144.05;82.04;57084.59;5049651;28;20106;-83
2023/12/07 03:03:18;;;;;;;66.90;27.17;;;;;;;-144.05;81.76;57052.75;5030060;28;20107;-83
2023/12/07 03:05:44;;;;;;;71.05;28.65;;;;;;;-144.05;81.53;57071.84;5033479;28;20452;-83
2023/12/07 03:08:10;;;;;;;71.20;28.17;;;;;;;-144.05;81.88;57084.59;5039992;28;20053;-84
2023/12/07 03:10:36;;;;;;;76.53;29.17;;;;;;;-144.05;81.98;57088.84;5055650;28;20040;-83
2023/12/07 03:13:03;;;;;;;71.60;28.13;;;;;;;-144.05;82.43;57090.97;5058071;28;20048;-80
2023/12/07 03:15:29;;;;;;;68.97;28.15;;;;;;;-144.05;82.10;57069.72;5053323;28;20091;-85
2023/12/07 03:17:55;;;;;;;69.15;26.83;;;;;;;-144.05;82.46;57076.09;5044737;28;20063;-83
2023/12/07 03:20:21;;;;;;;65.15;27.42;;;;;;;-144.05;82.54;57063.34;5036741;28;20033;-83
2023/12/07 03:22:48;;;;;;;67.07;28.67;;;;;;;-144.05;82.34;57069.72;5036824;28;20021;-83
2023/12/07 03:25:14;;;;;;;72.95;28.10;;;;;;;-144.05;82.14;57069.72;5036769;28;20025;-83
2023/12/07 03:27:40;;;;;;;65.43;27.85;;;;;;;-144.05;81.88;57084.59;5054800;28;20110;-84
2023/12/07 03:30:07;;;;;;;64.22;26.92;;;;;;;-144.05;82.01;57069.72;5054888;28;20029;-82
2023/12/07 03:32:33;;;;;;;69.53;28.83;;;;;;;-144.05;81.98;57069.72;5054612;28;20116;-84
2023/12/07 03:35:00;;;;;;;66.90;28.30;;;;;;;-144.05;82.16;57078.22;5049714;28;20040;-84
2023/12/07 03:37:26;;;;;;;63.67;25.77;;;;;;;-144.05;81.59;57073.97;5079481;28;20041;-84
2023/12/07 03:39:52;;;;;;;67.90;25.30;;;;;;;-144.05;82.39;57110.09;5058420;28;20077;-82
2023/12/07 03:42:18;;;;;;;66.55;26.17;;;;;;;-144.05;81.76;57090.97;5058161;28;20053;-83
2023/12/07 03:44:45;;;;;;;66.18;25.02;;;;;;;-144.05;82.01;57054.88;5038617;28;20507;-84
2023/12/07 03:47:11;;;;;;;70.32;26.67;;;;;;;-144.05;82.10;57073.97;5051368;28;20128;-85
2023/12/07 03:49:38;;;;;;;68.07;27.25;;;;;;;-144.05;82.01;57078.22;5035744;28;20107;-86
2023/12/07 03:52:05;;;;;;;66.20;26.38;;;;;;;-144.05;81.91;57099.47;5045846;28;20037;-86
2023/12/07 03:54:31;;;;;;;59.67;25.33;;;;;;;-144.05;81.84;57086.72;5054873;28;20139;-84
2023/12/07 03:56:58;;;;;;;69.50;25.00;;;;;;;-144.05;81.91;57065.47;5053902;28;20025;-84
2023/12/07 03:59:24;;;;;;;75.35;27.27;;;;;;;-144.05;81.83;57086.72;5033672;28;20025;-86
2023/12/07 04:01:50;;;;;;;68.20;26.23;;;;;;;-144.05;81.79;57073.97;5044932;28;20556;-83
2023/12/07 04:06:56;;;;;;;68.10;26.27;;;;;;;-144.05;81.85;57082.47;5111553;27;20493;-79
2023/12/07 04:09:22;;;;;;;66.00;27.83;;;;;;;-144.05;81.74;57050.63;5090435;28;20062;-81
2023/12/07 04:11:49;;;;;;;62.60;25.55;;;;;;;-144.05;81.73;57033.63;5102562;28;20052;-80
2023/12/07 04:14:15;;;;;;;61.72;26.23;;;;;;;-144.05;81.75;57073.97;5085672;28;20074;-78
2023/12/07 04:16:41;;;;;;;63.38;24.75;;;;;;;-144.05;81.48;57105.84;5090400;28;20028;-81
2023/12/07 04:19:07;;;;;;;65.80;25.02;;;;;;;-144.05;81.53;57084.59;5090179;28;20085;-80
2023/12/07 04:21:33;;;;;;;66.25;25.38;;;;;;;-144.05;81.80;57054.88;5111134;22;20063;-79
2023/12/07 04:24:00;;;;;;;69.65;26.50;;;;;;;-144.05;81.79;57105.84;5104301;28;20024;-79
2023/12/07 04:26:26;;;;;;;64.15;24.42;;;;;;;-144.05;81.80;57084.59;5087665;28;20048;-79
2023/12/07 04:28:52;;;;;;;64.18;25.73;;;;;;;-144.05;81.56;57044.25;5088905;28;20035;-79
2023/12/07 04:31:18;;;;;;;69.95;27.20;;;;;;;-144.05;81.53;57042.13;5088384;28;20032;-79
2023/12/07 04:33:44;;;;;;;66.88;25.48;;;;;;;-144.05;81.65;57114.34;5104154;28;20404;-79
2023/12/07 04:36:11;;;;;;;61.28;24.25;;;;;;;-144.05;82.22;57095.22;5090296;28;20024;-81
2023/12/07 04:38:37;;;;;;;68.38;26.02;;;;;;;-144.05;82.55;57088.84;5101466;28;20036;-79
2023/12/07 04:41:03;;;;;;;62.35;25.50;;;;;;;-144.05;82.27;57093.09;5122352;28;20024;-81
2023/12/07 04:43:30;;;;;;;68.70;27.08;;;;;;;-144.05;82.66;57033.63;5101679;28;20029;-83
2023/12/07 04:45:56;;;;;;;77.57;27.90;;;;;;;-144.05;82.34;57082.47;5090228;28;20070;-81
2023/12/07 04:48:22;;;;;;;56.22;24.48;;;;;;;-144.05;82.21;57048.50;5106817;28;20036;-83
2023/12/07 04:50:48;;;;;;;61.40;24.90;;;;;;;-144.05;82.36;57050.63;5089227;28;20150;-86
2023/12/07 04:53:14;;;;;;;61.40;23.80;;;;;;;-144.05;82.69;57078.22;5089937;28;20051;-82
2023/12/07 04:55:42;;;;;;;66.97;25.23;;;;;;;-144.05;82.55;57067.59;5105979;28;20035;-84
2023/12/07 04:58:09;;;;;;;60.97;24.30;;;;;;;-144.05;82.65;57101.59;5090286;28;20482;-80
2023/12/07 05:00:35;;;;;;;64.45;25.90;;;;;;;-144.05;82.42;57078.22;5089611;28;20028;-79
2023/12/07 05:03:02;;;;;;;57.97;24.02;;;;;;;-144.05;82.47;57076.09;5104889;28;20358;-79
2023/12/07 05:05:28;;;;;;;64.75;24.27;;;;;;;-144.05;83.23;57088.84;5088865;28;20032;-81
2023/12/07 05:07:54;;;;;;;68.90;25.70;;;;;;;-144.05;82.46;57069.72;5088936;28;20056;-84
2023/12/07 05:10:20;;;;;;;69.40;26.55;;;;;;;-144.05;82.81;57084.59;5087656;28;20191;-82
2023/12/07 05:12:47;;;;;;;58.35;22.85;;;;;;;-144.05;83.51;57086.72;5088836;28;20089;-80
2023/12/07 05:15:13;;;;;;;58.97;22.35;;;;;;;-144.05;83.24;57078.22;5104654;28;20183;-79
2023/12/07 05:17:39;;;;;;;60.88;22.27;;;;;;;-144.05;83.44;57069.72;5077817;28;20130;-80
2023/12/07 05:20:07;;;;;;;58.97;23.05;;;;;;;-144.05;83.36;57093.09;5074164;28;20034;-80
2023/12/07 05:22:33;;;;;;;61.63;23.80;;;;;;;-144.05;83.06;57061.22;5074701;28;20044;-81
2023/12/07 05:24:59;;;;;;;57.90;24.02;;;;;;;-144.05;83.52;57065.47;5076334;28;20032;-81
2023/12/07 05:27:25;;;;;;;56.83;24.27;;;;;;;-144.05;83.12;57082.47;5090988;28;20036;-82
2023/12/07 05:29:51;;;;;;;61.00;24.15;;;;;;;-144.05;83.22;57090.97;5075662;28;20036;-82
2023/12/07 05:32:18;;;;;;;67.65;24.35;;;;;;;-144.05;82.98;57090.97;5075583;28;20035;-82
2023/12/07 05:34:44;;;;;;;61.92;23.45;;;;;;;-144.05;83.88;57095.22;5075803;28;20059;-83
2023/12/07 05:37:10;;;;;;;59.20;23.70;;;;;;;-144.05;82.97;57090.97;5075169;28;20035;-79
2023/12/07 05:39:36;;;;;;;56.53;22.95;;;;;;;-144.05;83.44;57073.97;5075063;28;20056;-79
2023/12/07 05:42:04;;;;;;;65.78;23.55;;;;;;;-144.05;82.90;57023.00;5073282;28;20082;-83
2023/12/07 05:44:30;;;;;;;53.95;22.38;;;;;;;-144.05;83.22;57078.22;5074827;28;20035;-80
2023/12/07 05:46:57;;;;;;;53.65;23.70;;;;;;;-144.05;82.93;57076.09;5075361;28;20036;-82
2023/12/07 05:49:23;;;;;;;63.15;22.85;;;;;;;-144.05;82.77;57071.84;5075216;28;20036;-82
2023/12/07 05:51:49;;;;;;;53.25;22.38;;;;;;;-144.05;82.97;57016.63;5090658;28;20093;-83
2023/12/07 05:54:16;;;;;;;52.78;22.13;;;;;;;-144.05;83.27;57069.72;5073126;28;20036;-80
2023/12/07 05:56:42;;;;;;;55.95;21.63;;;;;;;-144.05;83.24;57090.97;5074160;28;20044;-81
2023/12/07 05:59:09;;;;;;;53.47;21.33;;;;;;;-144.05;84.02;57095.22;5086871;28;20024;-80
2023/12/07 06:01:35;;;;;;;49.08;20.98;;;;;;;-144.05;83.49;57086.72;5089890;28;20043;-79
2023/12/07 06:04:01;;;;;;;50.40;20.15;;;;;;;-144.05;82.66;57056.97;5096523;28;20032;-81
2023/12/07 06:06:27;;;;;;;62.17;23.63;;;;;;;-144.05;82.91;57063.34;5096124;28;20044;-81
2023/12/07 06:08:53;;;;;;;54.40;20.10;;;;;;;-144.05;82.77;57084.59;5076143;28;20096;-83
2023/12/07 06:11:20;;;;;;;50.05;19.63;;;;;;;-144.05;82.84;57065.47;5075969;28;20071;-81
2023/12/07 06:13:46;;;;;;;56.20;22.27;;;;;;;-144.05;82.32;57050.63;5094031;28;20039;-83
2023/12/07 06:16:13;;;;;;;54.00;21.35;;;2.50;99.90;;;-144.05;82.24;57080.34;5076125;28;20027;-82
2023/12/07 06:18:40;;;;;;;58.75;21.85;;;;;;;-144.05;81.99;57080.34;5076952;28;20025;-82
2023/12/07 06:21:06;;;;;;;54.35;20.50;;;;;;;-144.05;82.34;57095.22;5089247;28;20104;-83
2023/12/07 06:23:33;;;;;;;45.28;19.60;;;;;;;-144.05;82.16;57122.84;5082296;28;20177;-81
2023/12/07 06:25:59;;;;;;;44.35;18.80;;;;;;;-144.05;81.73;57061.22;5075376;28;20036;-83
2023/12/07 06:28:26;;;;;;;46.38;19.35;;;;;;;-144.05;81.86;57071.84;5073068;28;20036;-81
2023/12/07 06:30:53;;;;;;;47.10;19.75;;;;;;;-144.05;81.81;57105.84;5074159;28;20111;-79
2023/12/07 06:33:20;;;;;;;48.88;19.23;;;;;;;-144.05;81.72;57061.22;5072630;28;20051;-80
2023/12/07 06:35:47;;;;;;;42.30;19.98;;;;;;;-144.05;81.61;57071.84;5073988;28;20453;-81
2023/12/07 06:38:13;;;;;;;46.80;19.55;;;;;;;-144.05;81.75;57054.88;5071898;28;20110;-80
2023/12/07 06:40:40;;;;;;;41.67;17.73;;;;;;;-144.05;81.46;57063.34;5072063;28;20489;-79
2023/12/07 06:43:06;;;;;;;46.75;18.92;;;;;;;-144.05;81.63;57082.47;5081625;28;20039;-81
2023/12/07 06:45:32;;;;;;;44.78;19.20;;;;;;;-144.05;81.54;57071.84;5073561;28;20029;-81
2023/12/07 06:47:58;;;;;;;42.55;19.30;;;;;;;-144.05;81.56;57056.97;5074430;28;20060;-82
2023/12/07 06:50:24;;;;;;;40.28;17.95;;;;;;;-144.05;81.13;57093.09;5073533;28;20021;-80
2023/12/07 06:52:50;;;;;;;48.35;19.42;;;;;;;-144.05;81.97;57063.34;5074112;28;20028;-82
2023/12/07 06:55:17;;;;;;;48.60;21.02;;;;;;;-144.05;82.08;57107.97;5074654;28;20032;-84
2023/12/07 06:57:43;;;;;;;43.65;18.80;;;;;;;-144.05;82.39;57061.22;5081485;28;20118;-84
2023/12/07 07:00:10;;;;;;;47.70;20.20;;;;;;;-144.05;82.05;57071.84;5078202;28;20024;-81
2023/12/07 07:02:40;;;;;;;50.47;22.40;;;2.60;99.90;;;-144.05;81.52;57097.34;5076264;28;20039;-80
2023/12/07 07:05:07;;;;;;;56.20;22.20;;;;;;;-144.05;81.69;57071.84;5090620;28;20040;-84
2023/12/07 07:07:33;;;;;;;46.55;21.38;;;;;;;-144.05;81.25;57056.97;5074903;28;20067;-79
2023/12/07 07:09:59;;;;;;;51.83;21.90;;;;;;;-144.05;81.61;57107.97;5073756;28;20478;-81
2023/12/07 07:12:26;;;;;;;48.00;20.60;;;;;;;-144.05;81.94;57067.59;5072797;28;20025;-78
2023/12/07 07:14:53;;;;;;;47.80;20.38;;;;;;;-144.05;81.70;57086.72;5074175;28;20108;-81
2023/12/07 07:17:19;;;;;;;51.70;21.20;;;;;;;-144.05;81.34;57069.72;5072152;28;20060;-82
2023/12/07 07:19:45;;;;;;;47.75;21.20;;;;;;;-144.05;81.52;57095.22;5071714;28;20032;-82
2023/12/07 07:22:11;;;;;;;48.33;21.77;;;;;;;-144.05;81.22;57093.09;5073184;28;20064;-83
2023/12/07 07:24:38;;;;;;;47.78;21.85;;;;;;;-144.05;81.53;57097.34;5071380;28;20051;-80
2023/12/07 07:27:04;;;;;;;49.17;21.50;;;;;;;-144.05;81.59;57084.59;5072365;28;20028;-82
2023/12/07 07:29:32;;;;;;;49.75;21.63;;;;;;;-144.05;81.49;57084.59;5072765;28;20439;-82
2023/12/07 07:31:58;;;;;;;51.83;23.45;;;;;;;-144.05;81.50;57056.97;5073996;28;20037;-81
2023/12/07 07:34:25;;;;;;;51.33;21.40;;;;;;;-144.05;81.38;57095.22;5075627;28;20138;-81
2023/12/07 07:36:51;;;;;;;51.90;22.30;;;;;;;-144.05;81.21;57071.84;5075837;28;20067;-83
2023/12/07 07:39:17;;;;;;;50.30;21.73;;;;;;;-144.05;81.48;57071.84;5073793;28;20029;-82
2023/12/07 07:41:44;;;;;;;45.90;20.77;;;;;;;-144.05;81.76;57080.34;5077056;28;20119;-83
2023/12/07 07:44:10;;;;;;;47.60;20.83;;;;;;;-144.05;81.41;57114.34;5100914;28;20056;-83
2023/12/07 07:46:36;;;;;;;52.17;20.90;;;;;;;-144.05;81.47;57080.34;5069806;28;20092;-82
2023/12/07 07:49:06;;;;;;;48.15;21.48;;;;;;;-144.05;80.95;57078.22;5072398;28;20434;-81
2023/12/07 07:51:32;;;;;;;49.45;21.20;;;;;;;-144.05;81.42;57065.47;5073966;28;20408;-82
2023/12/07 07:53:59;;;;;;;53.42;20.58;;;1.80;99.90;;;-144.05;80.95;57061.22;5074479;28;20025;-79
2023/12/07 07:56:26;;;;;;;58.20;21.08;;;;;;;-144.05;80.72;57082.47;5071727;28;20027;-82
2023/12/07 07:58:52;;;;;;;45.20;19.25;;;;;;;-144.05;81.04;57065.47;5073856;28;20443;-82
2023/12/07 08:01:18;;;;;;;43.35;19.65;;;;;;;-144.05;79.88;57073.97;5074530;28;20207;-81
2023/12/07 08:03:44;;;;;;;43.13;20.48;;;;;;;-144.05;80.04;57124.97;5074896;28;20028;-85
2023/12/07 08:06:11;;;;;;;47.00;20.25;;;;;;;-144.05;80.10;57082.47;5075661;28;20088;-82
2023/12/07 08:08:37;;;;;;;51.95;22.35;;;;;;;-144.05;80.21;57093.09;5073390;28;20116;-82
2023/12/07 08:11:05;;;;;;;47.78;20.95;;;;;;;-144.05;79.97;57054.88;5073508;28;20056;-82
2023/12/07 08:13:31;;;;;;;47.88;21.15;;;;;;;-144.05;79.79;57084.59;5073621;28;20025;-82
2023/12/07 08:15:58;;;;;;;52.47;22.60;;;;;;;-144.05;78.87;57086.72;5069014;28;20017;-82
2023/12/07 08:18:24;;;;;;;50.08;23.05;;;;;;;-144.05;79.00;57073.97;5069041;28;20079;-82
2023/12/07 08:20:50;;;;;;;53.15;23.05;;;;;;;-144.05;78.68;57086.72;5072443;28;20112;-80
2023/12/07 08:23:16;;;;;;;51.53;22.30;;;;;;;-144.05;78.22;57080.34;5073239;28;20032;-80
2023/12/07 08:25:43;;;;;;;45.65;21.35;;;;;;;-144.05;78.13;57033.63;5072200;28;20176;-80
2023/12/07 08:28:10;;;;;;;44.50;19.58;;;;;;;-144.05;77.96;57054.88;5072503;28;20035;-80
2023/12/07 08:30:36;;;;;;;49.53;22.00;;;2.80;99.90;;;-144.05;76.35;57063.34;5073228;28;20029;-82
2023/12/07 08:33:03;;;;;;;45.88;21.35;;;;;;;-144.05;76.74;57065.47;5073244;28;20110;-80
2023/12/07 08:35:29;;;;;;;44.67;20.85;;;;;;;-144.05;76.28;57071.84;5088123;28;20506;-82
2023/12/07 08:37:55;;;;;;;40.70;19.98;;;;;;;-144.05;75.92;57048.50;5072462;28;20111;-81
2023/12/07 08:40:21;;;;;;;39.25;18.70;;;;;;;-144.05;74.95;57073.97;5072588;28;20127;-82
2023/12/07 08:42:48;;;;;;;33.88;18.27;;;;;;;-144.05;75.25;57093.09;5080971;28;20393;-81
2023/12/07 08:45:14;;;;;;;38.58;18.65;;;;;;;-144.05;74.48;57018.75;5072156;28;20060;-80
2023/12/07 08:47:42;;;;;;;42.42;19.02;;;3.70;99.90;;;-144.05;74.61;57044.25;5071001;28;20032;-81
2023/12/07 08:50:09;;;;;;;39.35;18.42;;;;;;;-144.05;74.04;57016.63;5072577;28;20029;-79
2023/12/07 08:52:35;;;;;;;41.60;20.48;;;;;;;-144.05;73.07;57018.75;5074540;28;20028;-80
2023/12/07 08:55:02;;;;;;;40.13;20.92;;;;;;;-144.05;72.24;57056.97;5076103;28;20078;-79
2023/12/07 08:57:28;;;;;;;36.17;18.70;;;;;;;-144.05;71.89;57040.00;5074735;28;20020;-81
2023/12/07 08:59:54;;;;;;;36.75;19.67;;;;;;;-144.05;70.73;57056.97;5077708;28;20063;-82
2023/12/07 09:02:21;;;;;;;33.58;18.27;;;;;;;-144.05;71.24;57054.88;5085822;28;20025;-83
2023/12/07 09:04:49;;;;;;;38.20;19.58;;;;;;;-144.05;70.71;57016.63;5081150;28;20050;-84
2023/12/07 09:07:16;;;;;;;37.72;18.38;;;;;;;-144.05;70.03;57031.50;5081088;28;20047;-84
2023/12/07 09:09:46;;;;;;;41.28;20.67;;;;;;;-144.05;69.68;57003.88;5084712;28;20079;-83
2023/12/07 09:12:14;;;;;;;33.90;18.13;;;;;;;-144.05;68.54;57014.50;5080181;28;20174;-81
2023/12/07 09:14:40;;;;;;;37.47;20.50;;;;;;;-144.05;68.74;57035.75;5092899;28;20493;-81
2023/12/07 09:17:07;;;;;;;34.90;18.13;;;;;;;-144.05;67.90;57012.38;5077605;28;20044;-82
2023/12/07 09:19:33;;;;;;;34.15;18.73;;;;;;;-144.05;67.58;57018.75;5078771;28;20089;-81
2023/12/07 09:21:59;;;;;;;36.25;18.05;;;;;;;-144.05;67.79;57010.25;5078161;28;20059;-79
2023/12/07 09:24:26;;;;;;;36.08;17.20;;;3.20;99.90;;;-144.05;67.15;57023.00;5077353;28;20111;-79
2023/12/07 09:26:52;;;;;;;34.22;16.85;;;;;;;-144.05;66.92;57031.50;5069193;28;20029;-79
2023/12/07 09:29:19;;;;;;;30.50;16.55;;;;;;;-144.05;66.22;57027.25;5077601;28;20033;-80
2023/12/07 09:31:45;;;;;;;33.03;17.60;;;;;;;-144.05;66.02;56997.50;5074534;28;20502;-80
2023/12/07 09:34:17;;;;;;;29.30;15.80;;;;;;;-144.05;65.14;57048.50;5091473;28;20082;-78
2023/12/07 09:36:45;;;;;;;30.77;15.95;;;;;;;-144.05;65.53;57044.25;5076999;28;20032;-82
2023/12/07 09:39:12;;;;;;;27.75;15.40;;;;;;;-144.05;65.36;56995.38;5077295;28;20429;-81
2023/12/07 09:41:43;;;;;;;30.33;15.30;;;;;;;-144.05;65.00;57001.75;5078159;28;20039;-81
2023/12/07 09:44:09;;;;;;;30.38;15.98;;;;;;;-144.05;64.60;56999.63;5102755;28;20095;-82
2023/12/07 09:46:36;;;;;;;31.83;15.93;;;;;;;-144.05;65.13;57018.75;5079232;28;20065;-83
2023/12/07 09:49:03;;;;;;;29.65;14.40;;;;;;;-144.05;65.06;57012.38;5077656;28;20041;-81
2023/12/07 09:51:31;;;;;;;31.42;15.88;;;;;;;-144.05;65.00;56995.38;5077297;28;20035;-80
2023/12/07 09:53:58;;;;;;;28.55;14.82;;;;;;;-144.05;64.11;56969.91;5073711;28;20032;-81
2023/12/07 09:56:25;;;;;;;27.35;14.18;;;;;;;-144.05;64.70;57014.50;5075053;28;20100;-79
2023/12/07 09:58:51;;;;;;;26.10;13.52;;;;;;;-144.05;64.19;56995.38;5075610;28;20088;-80
2023/12/07 10:01:17;;;;;;;26.98;13.32;;;;;;;-144.05;64.19;57027.25;5090814;28;20119;-79
2023/12/07 10:03:46;;;;;;;22.85;12.45;;;;;;;-144.05;63.55;57059.09;5091656;28;20032;-78
2023/12/07 10:06:13;;;;;;;22.25;12.15;;;;;;;-144.05;64.24;57016.63;5074184;28;20502;-79
2023/12/07 10:08:39;;;;;;;19.08;11.65;;;;;;;-144.05;63.84;57018.75;5090115;28;20202;-80
2023/12/07 10:11:12;;;;;;;23.10;13.27;;;7.10;99.90;;;-144.05;63.07;57054.88;5074498;28;20032;-79
2023/12/07 10:13:39;;;;;;;24.95;12.27;;;;;;;-144.05;63.27;57020.88;5074449;28;20039;-79
2023/12/07 10:16:17;;;;;;;31.40;15.10;;;3.30;99.90;;;-144.05;64.04;57031.50;5075308;28;20031;-80
2023/12/07 10:18:43;;;;;;;31.58;16.38;;;;;;;-144.05;63.53;57023.00;5090128;28;20028;-78
2023/12/07 10:21:10;;;;;;;43.80;17.98;;;;;;;-144.05;62.81;57027.25;5082728;22;20073;-83
2023/12/07 10:23:46;;;;;;;43.60;19.52;;;;;;;-144.05;62.52;57008.13;5045576;28;20120;-83
2023/12/07 10:26:12;;;;;;;;;;;3.90;99.90;;;-144.05;62.37;57014.50;5051669;28;20033;-85
2023/12/07 10:28:39;;;;;;;;;;;3.40;99.90;;;-144.05;61.86;57010.25;5026627;28;20331;-82
2023/12/07 10:31:09;;;;;;;20.73;11.63;;;;;;;-144.05;61.36;57010.25;5050683;28;20014;-85
2023/12/07 10:33:36;;;;;;;21.35;11.88;;;;;;;-144.05;59.85;57014.50;5034823;28;20113;-82
2023/12/07 10:36:04;;;;;;;24.95;13.18;;;;;;;-144.05;60.63;57008.13;5030314;28;20340;-82
2023/12/07 10:38:32;;;;;;;22.33;12.68;;;;;;;-144.05;60.22;56989.00;5040065;28;20041;-82
2023/12/07 10:41:07;;;;;;;19.33;12.30;;;4.70;99.90;;;-144.05;60.13;57025.13;5024864;28;20040;-84
2023/12/07 10:43:42;;;;;;;24.03;12.47;;;;;;;-144.05;60.65;57014.50;5046143;28;20396;-83
2023/12/07 10:46:11;;;;;;;25.42;11.55;;;;;;;-144.05;60.94;57025.13;5030841;28;20362;-84
2023/12/07 10:48:38;;;;;;;20.23;11.20;;;;;;;-144.05;60.87;57010.25;5036992;28;20037;-83
2023/12/07 10:51:12;;;;;;;17.92;10.45;;;;;;;-144.05;60.97;57042.13;5013601;28;20076;-83
2023/12/07 10:53:43;;;;;;;19.15;10.98;;;7.40;99.90;;;-144.05;60.48;57001.75;5025066;28;20190;-84
2023/12/07 10:56:34;;;;;;;18.10;9.70;;;;;;;-144.05;60.01;57001.75;5042249;28;20045;-84
2023/12/07 10:59:01;;;;;;;16.73;9.43;;;;;;;-144.05;59.70;56982.66;5035097;28;20458;-83
2023/12/07 11:01:30;;;;;;;14.15;8.90;;;;;;;-144.05;60.09;57027.25;5043556;28;20026;-84